Time;durP1;ratioP1;P1;durP2;ratioP2;P2;SDS_P1;SDS_P2;PMS_P1;PMS_P2;Temp;Humidity;BMP_temperature;BMP_pressure;BME280_temperature;BME280_humidity;BME280_pressure;Samples;Min_cycle;Max_cycle;Signal;HPM_P1;HPM_P2
2023/01/06 07:15:44;;;;;;;3.33;1.10;;;;;;;10.64;80.91;100417.28;1087618;54;20026;-83
2023/01/06 07:16:46;;;;;;;3.70;1.30;;;;;;;10.70;80.83;100424.75;1087605;54;20030;-82
2023/01/06 07:17:50;;;;;;;2.97;0.90;;;;;;;10.91;80.37;100422.00;1087293;54;20131;-82
2023/01/06 07:18:54;;;;;;;2.33;1.00;;;;;;;10.87;79.83;100421.44;1089966;39;20526;-82
2023/01/06 07:19:56;;;;;;;2.35;0.82;;;;;;;11.03;79.75;100428.94;1087352;46;20065;-82
2023/01/06 07:21:00;;;;;;;3.97;0.95;;;;;;;10.88;79.64;100428.47;1087303;54;20048;-82
2023/01/06 07:22:04;;;;;;;3.33;0.93;;;;;;;10.90;79.55;100425.66;1087242;54;20062;-82
2023/01/06 07:23:06;;;;;;;1.90;0.77;;;;;;;10.92;78.84;100421.00;1087471;54;20031;-83
2023/01/06 07:24:10;;;;;;;3.45;1.08;;;;;;;10.83;78.99;100432.53;1087325;54;20030;-82
2023/01/06 07:25:12;;;;;;;3.28;1.00;;;;;;;10.85;78.93;100430.59;1087289;54;20046;-82
2023/01/06 07:26:16;;;;;;;3.00;0.90;;;;;;;10.82;78.62;100426.31;1087455;54;20030;-82
2023/01/06 07:27:18;;;;;;;2.28;0.82;;;;;;;10.89;78.91;100424.81;1087171;54;20110;-81
2023/01/06 07:28:22;;;;;;;2.42;0.88;;;;;;;10.92;78.47;100421.84;1087481;54;20038;-81
2023/01/06 07:29:26;;;;;;;3.90;1.25;;;;;;;10.80;78.70;100427.44;1088312;39;20480;-82
2023/01/06 07:30:28;;;;;;;4.25;1.10;;;;;;;10.70;78.99;100432.78;1087160;54;20061;-83
2023/01/06 07:31:34;;;;;;;2.45;0.90;;;;;;;10.71;79.00;100424.63;1087481;54;20031;-80
2023/01/06 07:38:51;;;;;;;5.28;1.20;;;;;;;10.62;77.99;100438.81;1087007;54;20038;-80
2023/01/06 08:23:18;;;;;;;5.45;1.30;;;;;;;10.84;73.34;100463.66;1088160;54;20038;-80
2023/01/06 08:24:19;;;;;;;5.50;1.40;;;;;;;10.79;73.83;100457.84;1088608;54;20042;-78
2023/01/06 08:25:24;;;;;;;3.50;1.15;;;;;;;10.85;73.25;100460.00;1089095;46;20056;-79
2023/01/06 08:26:25;;;;;;;3.10;1.27;;;;;;;10.85;73.44;100460.00;1089032;54;20065;-79
2023/01/06 08:27:30;;;;;;;3.97;1.30;;;;;;;10.88;73.37;100454.34;1089174;54;20057;-80
2023/01/06 08:28:31;;;;;;;3.92;1.55;;;;;;;10.91;72.98;100456.78;1088811;54;20042;-79
2023/01/06 08:29:35;;;;;;;4.15;1.35;;;;;;;10.99;72.85;100454.25;1088597;54;21083;-79
2023/01/06 08:30:38;;;;;;;4.03;1.20;;;;;;;11.00;73.14;100455.94;1088752;54;20052;-79
2023/01/06 08:31:43;;;;;;;3.30;1.40;;;;;;;10.91;72.96;100462.94;1088800;54;20052;-79
2023/01/06 08:32:50;;;;;;;3.65;1.27;;;;;;;10.84;72.96;100464.47;1089018;38;20534;-79
2023/01/06 08:34:21;;;;;;;3.10;1.30;;;;;;;10.81;72.79;100458.56;1088881;54;20370;-81
2023/01/06 08:35:27;;;;;;;3.58;1.30;;;;;;;10.90;72.94;100461.28;1088980;54;20040;-79
2023/01/06 08:36:31;;;;;;;3.00;1.00;;;;;;;10.88;72.79;100457.91;1090821;38;20507;-79
2023/01/06 08:37:33;;;;;;;4.25;1.30;;;;;;;10.87;72.74;100468.72;1089055;54;20042;-80
2023/01/06 08:38:40;;;;;;;4.47;1.35;;;;;;;10.87;72.48;100453.53;1089248;46;20086;-78
2023/01/06 08:39:47;;;;;;;3.90;1.38;;;;;;;10.88;72.08;100465.91;1089194;54;20030;-79
2023/01/06 08:40:56;;;;;;;5.35;1.52;;;;;;;11.11;71.70;100467.50;1089055;54;20046;-79
2023/01/06 08:41:57;;;;;;;3.33;1.20;;;;;;;11.02;71.79;100464.69;1093014;38;20598;-79
2023/01/06 08:43:01;;;;;;;3.78;1.10;;;;;;;11.04;71.89;100469.88;1089076;54;20042;-79
2023/01/06 08:44:03;;;;;;;3.40;1.08;;;;;;;11.03;71.53;100469.06;1090848;38;20696;-80
2023/01/06 08:45:09;;;;;;;3.25;1.15;;;;;;;11.00;71.66;100463.97;1088594;54;20037;-78
2023/01/06 08:46:12;;;;;;;3.65;1.25;;;;;;;10.99;71.83;100472.13;1088642;54;20450;-80
2023/01/06 08:47:16;;;;;;;4.68;1.10;;;;;;;11.00;71.29;100468.50;1088679;54;20038;-78
2023/01/06 08:48:18;;;;;;;4.30;1.40;;;;;;;10.91;71.84;100467.47;1088840;54;20041;-81
2023/01/06 08:49:25;;;;;;;4.03;1.45;;;;;;;10.97;71.99;100464.22;1088914;54;20034;-78
2023/01/06 08:50:26;;;;;;;2.75;1.17;;;;;;;10.93;71.73;100461.00;1089036;54;20037;-79
2023/01/06 08:51:36;;;;;;;3.40;1.13;;;;;;;10.90;71.87;100463.09;1089166;54;20090;-78
2023/01/06 08:52:37;;;;;;;4.30;1.45;;;;;;;10.95;72.10;100476.06;1091547;46;20034;-79
2023/01/06 08:54:13;;;;;;;3.40;1.60;;;;;;;11.15;71.39;100471.59;1089239;54;20030;-80
2023/01/06 08:57:09;;;;;;;3.63;1.40;;;;;;;11.04;71.59;100470.75;1086672;54;20062;-78
2023/01/06 09:03:55;;;;;;;6.13;2.00;;;;;;;11.25;71.04;100477.81;1086406;54;20037;-78
2023/01/06 09:35:18;;;;;;;4.72;1.10;;;;;;;12.01;67.31;100487.84;910187;54;50741;-80
2023/01/06 09:36:22;;;;;;;3.08;1.20;;;;;;;12.07;67.07;100493.63;1088940;54;20034;-80
2023/01/06 09:37:24;;;;;;;3.92;1.23;;;;;;;11.75;67.45;100489.41;1089161;54;20034;-80
2023/01/06 09:38:29;;;;;;;3.13;1.10;;;;;;;11.51;68.42;100479.97;1089158;54;20037;-83
2023/01/06 09:54:56;;;;;;;4.03;1.10;;;;;;;11.20;69.12;100482.75;1088757;54;20034;-84
2023/01/06 09:57:07;;;;;;;3.80;1.10;;;;;;;11.33;68.82;100472.63;1089347;38;20472;-80
2023/01/06 09:58:20;;;;;;;4.40;1.23;;;;;;;11.35;68.69;100467.97;1087506;54;20036;-82
2023/01/06 09:59:42;;;;;;;4.15;1.40;;;;;;;11.34;68.75;100476.97;1088088;54;20695;-80
2023/01/06 10:01:09;;;;;;;3.20;1.23;;;;;;;11.27;68.54;100469.66;1088298;54;20079;-83
2023/01/06 10:03:57;;;;;;;3.95;1.48;;;;;;;11.49;68.33;100468.53;1088052;54;20063;-80
2023/01/06 10:05:22;;;;;;;2.80;0.90;;;;;;;11.49;67.51;100473.91;1088232;54;20038;-80
2023/01/06 10:08:25;;;;;;;5.07;1.58;;;;;;;11.74;67.02;100467.13;1088572;54;20038;-81
2023/01/06 10:10:28;;;;;;;3.97;1.20;;;;;;;11.58;66.93;100464.16;1088764;54;20046;-82
2023/01/06 10:14:32;;;;;;;2.35;0.90;;;;;;;11.58;66.99;100457.00;1088334;54;20098;-79
2023/01/06 10:15:53;;;;;;;4.72;1.60;;;;;;;11.69;66.82;100447.94;1088768;54;20019;-78
2023/01/06 10:19:22;;;;;;;4.05;1.00;;;;;;;11.57;66.22;100438.41;1088037;54;20038;-80
2023/01/06 10:28:08;;;;;;;3.75;1.42;;;;;;;12.10;64.13;100434.38;1085568;54;20034;-80
2023/01/06 10:29:19;;;;;;;2.92;0.95;;;;;;;12.02;64.04;100438.63;1087224;54;20042;-83
2023/01/06 10:30:29;;;;;;;3.00;1.08;;;;;;;11.91;64.34;100446.78;1087379;54;20030;-83
2023/01/06 10:31:38;;;;;;;2.92;1.00;;;;;;;11.96;64.78;100441.84;1087641;46;20067;-82
2023/01/06 10:32:48;;;;;;;4.47;0.95;;;;;;;11.84;64.57;100445.69;1086730;54;20046;-83
2023/01/06 10:33:57;;;;;;;2.60;1.08;;;;;;;11.94;64.44;100441.16;1087126;54;20071;-79
2023/01/06 10:35:36;;;;;;;3.45;1.48;;;;;;;11.91;64.33;100446.78;1086209;54;20045;-81
2023/01/06 10:36:50;;;;;;;3.55;1.10;;;;;;;11.92;64.62;100443.13;1086015;54;20037;-78
2023/01/06 10:37:55;;;;;;;2.80;1.23;;;;;;;12.11;64.26;100436.94;1087406;46;20832;-83
2023/01/06 10:39:05;;;;;;;2.78;0.90;;;;;;;11.89;64.28;100435.41;1087264;54;20102;-81
2023/01/06 10:40:20;;;;;;;3.25;1.42;;;;;;;11.91;64.03;100440.59;1087324;54;20127;-81
2023/01/06 10:41:40;;;;;;;2.05;0.80;;;;;;;11.85;64.14;100445.53;1087331;54;20034;-87
2023/01/06 10:42:54;;;;;;;2.95;1.08;;;;;;;11.92;64.08;100447.66;1087152;54;20034;-84
2023/01/06 10:44:03;;;;;;;3.53;1.02;;;;;;;12.04;63.68;100449.22;1087079;54;20073;-77
2023/01/06 10:45:13;;;;;;;2.72;1.05;;;;;;;11.99;63.32;100443.44;1084502;54;20062;-76
2023/01/06 10:46:18;;;;;;;3.40;1.00;;;;;;;11.88;63.48;100449.78;1085484;54;20098;-80
2023/01/06 10:47:24;;;;;;;2.47;0.80;;;;;;;11.84;63.69;100441.19;1086881;54;20046;-84
2023/01/06 10:48:31;;;;;;;3.10;0.90;;;;;;;12.02;63.55;100441.31;1086972;54;20034;-81
2023/01/06 10:49:36;;;;;;;3.03;1.20;;;;;;;11.92;63.36;100443.13;1087911;46;20057;-80
2023/01/06 10:50:40;;;;;;;2.67;0.70;;;;;;;11.96;63.40;100436.50;1086120;54;20034;-79
2023/01/06 10:51:44;;;;;;;2.97;1.10;;;;;;;12.13;63.24;100439.44;1085932;54;20038;-79
2023/01/06 10:52:50;;;;;;;2.42;0.82;;;;;;;12.06;63.13;100433.00;1086194;54;20034;-78
2023/01/06 10:53:54;;;;;;;3.00;0.90;;;;;;;11.98;63.05;100425.66;1086391;54;20038;-79
2023/01/06 11:06:07;;;;;;;2.38;0.73;;;;;;;12.19;61.10;100428.13;1085441;54;20037;-78
2023/01/06 11:11:57;;;;;;;;;;;;;;;;;;;;;
2023/01/06 11:15:54;;;;;;;1.70;0.60;;;;;;;12.23;58.48;100418.81;1086514;54;20034;-77
2023/01/06 11:17:29;;;;;;;2.47;0.63;;;;;;;12.16;58.28;100426.59;1087172;54;20034;-78
2023/01/06 11:19:40;;;;;;;1.83;0.75;;;;;;;12.23;57.90;100424.19;1087493;39;20352;-79
2023/01/06 11:25:14;;;;;;;1.95;0.60;;;;;;;12.43;56.84;100429.47;1086827;54;20072;-79
2023/01/06 11:31:34;;;;;;;2.60;0.80;;;;;;;12.24;56.31;100423.19;1087755;46;20130;-79
2023/01/06 11:51:09;;;;;;;0.93;0.35;;;;;;;12.64;56.44;100416.69;1086417;54;20986;-80
2023/01/06 11:52:24;;;;;;;1.40;0.45;;;;;;;12.64;56.56;100418.50;1087836;46;20053;-81
2023/01/06 11:53:29;;;;;;;2.33;0.70;;;;;;;12.72;56.47;100420.44;1088297;46;20038;-80
2023/01/06 11:54:34;;;;;;;1.60;0.63;;;;;;;12.40;57.06;100421.72;1087341;54;20046;-80
2023/01/06 11:55:40;;;;;;;1.75;0.60;;;;;;;12.51;56.92;100423.38;1087209;54;20042;-80
2023/01/06 11:56:58;;;;;;;1.55;0.50;;;;;;;12.58;57.06;100417.25;1087425;54;20038;-80
2023/01/06 11:58:08;;;;;;;2.58;0.80;;;;;;;12.56;56.79;100416.59;1087319;54;20034;-80
2023/01/06 11:59:13;;;;;;;1.58;0.60;;;;;;;12.59;56.99;100418.13;1087406;54;20046;-79
2023/01/06 12:00:38;;;;;;;1.90;0.70;;;;;;;12.67;56.76;100417.34;1087997;46;20061;-80
2023/01/06 12:01:47;;;;;;;1.67;0.50;;;;;;;12.39;57.25;100422.69;1087299;54;20042;-82
2023/01/06 12:02:57;;;;;;;1.30;0.60;;;;;;;12.35;57.54;100426.69;1087265;54;20034;-80
2023/01/06 12:04:11;;;;;;;1.42;0.50;;;;;;;12.39;57.06;100409.31;1087303;54;20061;-80
2023/01/06 12:05:24;;;;;;;1.45;0.57;;;;;;;12.41;57.45;100412.69;1087409;54;20077;-79
2023/01/06 12:06:36;;;;;;;1.27;0.50;;;;;;;12.58;57.12;100409.22;1087582;54;20030;-80
2023/01/06 12:07:43;;;;;;;2.65;0.93;;;;;;;12.68;57.17;100408.31;1088129;46;20022;-80
2023/01/06 12:08:55;;;;;;;2.83;0.80;;;;;;;12.42;57.33;100407.16;1086979;54;20122;-80
2023/01/06 12:10:04;;;;;;;1.95;0.63;;;;;;;12.32;57.25;100409.91;1091743;39;20987;-80
2023/01/06 12:11:15;;;;;;;0.88;0.40;;;;;;;12.40;57.24;100403.81;1087267;54;20034;-81
2023/01/06 12:12:23;;;;;;;1.63;0.55;;;;;;;12.49;57.29;100402.06;1086995;54;20054;-79
2023/01/06 12:13:28;;;;;;;1.23;0.43;;;;;;;12.69;56.93;100397.47;1087218;54;20042;-79
2023/01/06 12:27:45;;;;;;;1.70;0.60;;;;;;;12.13;59.69;100381.34;1086362;54;20034;-79
2023/01/06 12:33:27;;;;;;;2.42;0.77;;;;;;;12.27;59.50;100387.22;1086833;54;20050;-79
2023/01/06 12:37:05;;;;;;;1.48;0.60;;;;;;;11.99;59.86;100382.66;1086198;54;20053;-78
2023/01/06 12:39:03;;;;;;;1.85;0.60;;;;;;;11.90;60.13;100386.19;1086415;54;20073;-80
2023/01/06 12:40:38;;;;;;;1.75;0.60;;;;;;;12.16;59.91;100380.22;1086690;54;20038;-77
2023/01/06 12:42:25;;;;;;;3.10;0.60;;;;;;;12.22;59.60;100378.78;1086594;54;20038;-78
2023/01/06 12:43:33;;;;;;;1.98;0.80;;;;;;;12.25;59.82;100376.66;1086556;54;20055;-78
2023/01/06 12:44:44;;;;;;;2.67;0.82;;;;;;;12.16;59.95;100378.34;1086760;54;20046;-78
2023/01/06 12:46:04;;;;;;;2.10;0.70;;;;;;;12.07;60.66;100376.56;1086754;54;20062;-78
2023/01/06 12:47:13;;;;;;;2.60;0.70;;;;;;;12.11;60.29;100377.09;1086932;54;20090;-78
2023/01/06 12:48:24;;;;;;;2.05;0.50;;;;;;;12.09;60.38;100379.94;1086818;54;20275;-78
2023/01/06 12:49:32;;;;;;;1.75;0.40;;;;;;;12.12;60.40;100376.13;1086639;54;20054;-78
2023/01/06 12:50:40;;;;;;;1.83;0.75;;;;;;;12.24;60.25;100380.31;1086708;54;20050;-81
2023/01/06 12:51:47;;;;;;;2.38;0.70;;;;;;;12.36;59.97;100383.63;1086652;54;20038;-78
2023/01/06 12:52:56;;;;;;;2.20;0.85;;;;;;;12.33;59.74;100375.88;1086912;46;21089;-78
2023/01/06 12:54:04;;;;;;;2.17;0.70;;;;;;;12.33;59.93;100376.75;1086827;54;20042;-79
2023/01/06 12:55:14;;;;;;;2.13;0.60;;;;;;;12.20;60.24;100376.22;1086321;54;20042;-78
2023/01/06 12:56:38;;;;;;;1.60;0.60;;;;;;;12.12;60.68;100390.38;1086755;54;20034;-79
2023/01/06 12:57:55;;;;;;;2.28;0.73;;;;;;;12.19;60.52;100377.22;1087187;54;20046;-79
2023/01/06 12:59:10;;;;;;;2.72;0.88;;;;;;;12.37;59.88;100377.28;1087185;54;20049;-79
2023/01/06 13:00:44;;;;;;;2.47;0.93;;;;;;;12.42;59.79;100371.47;1087267;54;20046;-79
2023/01/06 13:01:52;;;;;;;1.75;0.60;;;;;;;12.31;60.54;100378.72;1087168;54;20038;-79
2023/01/06 13:03:16;;;;;;;1.60;0.60;;;;;;;12.33;60.30;100382.09;1087134;47;20027;-77
2023/01/06 13:10:00;;;;;;;2.67;0.88;;;;;;;12.09;61.68;100379.13;1088771;39;20352;-81
2023/01/06 13:14:06;;;;;;;2.42;0.82;;;;;;;12.04;62.00;100386.72;1086615;54;20074;-79
2023/01/06 13:15:56;;;;;;;;;;;;;;;;;;;;;
2023/01/06 13:20:43;;;;;;;1.98;0.75;;;;;;;12.15;62.10;100392.75;1087713;54;20054;-80
2023/01/06 13:21:50;;;;;;;2.75;1.08;;;;;;;12.06;62.47;100395.47;1087483;54;20792;-79
2023/01/06 13:23:04;;;;;;;2.83;0.98;;;;;;;11.96;62.77;100393.63;1087498;54;20065;-80
2023/01/06 13:24:28;;;;;;;2.63;0.82;;;;;;;12.08;62.65;100398.84;1088750;39;20681;-80
2023/01/06 13:25:51;;;;;;;2.50;0.93;;;;;;;11.88;63.14;100379.25;1087599;54;20035;-78
2023/01/06 13:27:17;;;;;;;2.67;0.75;;;;;;;11.99;62.76;100382.66;1087490;54;20040;-80
2023/01/06 13:28:37;;;;;;;3.08;0.80;;;;;;;11.93;62.90;100375.16;1087646;47;20038;-80
2023/01/06 13:29:53;;;;;;;2.33;0.90;;;;;;;12.01;62.97;100374.47;1088773;47;20089;-79
2023/01/06 13:31:39;;;;;;;2.05;0.80;;;;;;;11.86;62.90;100374.06;1087505;54;20042;-80
2023/01/06 13:33:02;;;;;;;2.42;0.80;;;;;;;11.79;63.12;100375.63;1087074;54;20038;-81
2023/01/06 13:34:29;;;;;;;2.17;0.75;;;;;;;11.80;63.48;100374.66;1087243;54;20019;-79
2023/01/06 13:35:50;;;;;;;2.05;0.80;;;;;;;11.82;63.65;100372.66;1088163;47;20030;-79
2023/01/06 13:37:17;;;;;;;3.60;0.80;;;;;;;11.79;63.39;100373.78;1087628;54;20062;-81
2023/01/06 13:38:38;;;;;;;2.85;0.88;;;;;;;11.82;63.52;100375.31;1087641;54;20061;-80
2023/01/06 13:39:47;;;;;;;3.25;0.90;;;;;;;11.82;63.51;100376.19;1087574;54;20042;-78
2023/01/06 13:40:52;;;;;;;2.72;0.93;;;;;;;11.90;63.38;100370.13;1088282;47;20034;-79
2023/01/06 13:42:02;;;;;;;2.60;0.93;;;;;;;11.97;62.76;100368.56;1087780;47;20038;-78
2023/01/06 13:43:18;;;;;;;2.33;0.70;;;;;;;11.85;63.03;100372.38;1087585;47;20073;-81
2023/01/06 13:44:25;;;;;;;2.63;0.90;;;;;;;11.94;63.03;100370.66;1087576;54;20037;-81
2023/01/06 13:45:32;;;;;;;2.47;0.90;;;;;;;12.11;62.64;100379.78;1087520;54;20038;-80
2023/01/06 13:46:37;;;;;;;2.38;0.75;;;;;;;12.15;62.67;100387.38;1088526;39;20294;-78
2023/01/06 13:47:40;;;;;;;2.95;0.75;;;;;;;12.13;62.35;100381.34;1087325;54;20034;-80
2023/01/06 13:48:53;;;;;;;1.85;0.60;;;;;;;12.09;62.09;100384.47;1087486;54;20087;-80
2023/01/06 13:50:00;;;;;;;2.38;0.60;;;;;;;11.93;62.56;100393.09;1090246;39;20301;-79
2023/01/06 13:51:09;;;;;;;2.10;0.70;;;;;;;11.91;62.94;100393.22;1088330;47;20046;-80
2023/01/06 13:52:18;;;;;;;2.35;0.75;;;;;;;12.00;62.69;100389.69;1087482;54;20030;-80
2023/01/06 13:53:26;;;;;;;2.70;0.80;;;;;;;11.93;63.13;100385.03;1087517;54;20031;-80
2023/01/06 13:55:00;;;;;;;2.03;0.60;;;;;;;11.88;63.09;100381.94;1087548;54;20761;-78
2023/01/06 13:56:32;;;;;;;2.30;0.80;;;;;;;11.71;63.05;100385.22;1087618;54;20075;-77
2023/01/06 13:57:37;;;;;;;3.40;1.20;;;;;;;11.83;62.94;100385.91;1087617;54;20031;-80
2023/01/06 13:58:43;;;;;;;2.40;0.85;;;;;;;12.06;62.77;100385.59;1087669;54;20039;-77
2023/01/06 13:59:48;;;;;;;2.72;0.95;;;;;;;11.95;62.40;100383.06;1087778;54;20042;-78
2023/01/06 14:01:07;;;;;;;2.30;0.90;;;;;;;11.79;62.68;100379.16;1087784;54;20077;-80
2023/01/06 14:03:05;;;;;;;3.33;0.80;;;;;;;11.84;62.46;100384.94;1087928;46;20035;-80
2023/01/06 14:04:41;;;;;;;2.90;0.90;;;;;;;11.90;62.22;100390.69;1090013;46;20030;-78
2023/01/06 14:06:00;;;;;;;2.42;0.82;;;;;;;11.96;62.15;100390.94;1088937;46;20034;-80
2023/01/06 14:07:03;;;;;;;2.83;0.90;;;;;;;11.85;62.32;100391.94;1087941;54;20106;-80
2023/01/06 14:08:18;;;;;;;2.28;0.70;;;;;;;11.78;62.05;100390.84;1087827;54;20046;-78
2023/01/06 14:09:21;;;;;;;2.47;0.90;;;;;;;11.96;61.81;100390.94;1087453;54;20038;-78
2023/01/06 14:10:35;;;;;;;2.58;0.95;;;;;;;12.05;61.73;100399.97;1087619;54;20377;-79
2023/01/06 14:11:40;;;;;;;2.15;0.70;;;;;;;12.09;61.54;100393.34;1087764;54;20122;-77
2023/01/06 14:12:47;;;;;;;1.80;0.70;;;;;;;12.23;61.13;100397.38;1090125;39;20681;-81
2023/01/06 14:13:54;;;;;;;2.88;0.95;;;;;;;12.15;61.37;100406.16;1087936;54;20038;-81
2023/01/06 14:14:59;;;;;;;2.42;0.80;;;;;;;12.07;61.54;100403.34;1088154;54;20749;-81
2023/01/06 14:16:12;;;;;;;2.58;0.75;;;;;;;12.20;61.01;100403.03;1088118;54;20030;-81
2023/01/06 14:17:31;;;;;;;2.78;0.80;;;;;;;12.13;61.61;100412.66;1087720;54;20042;-78
2023/01/06 14:18:45;;;;;;;3.00;1.00;;;;;;;12.04;61.98;100410.84;1087797;54;20034;-77
2023/01/06 14:19:53;;;;;;;3.40;1.15;;;;;;;11.84;62.13;100414.41;1087533;54;20090;-79
2023/01/06 14:21:05;;;;;;;3.85;1.10;;;;;;;11.77;62.55;100417.78;1087750;54;20058;-79
2023/01/06 14:22:19;;;;;;;2.17;0.82;;;;;;;11.89;62.10;100422.00;1087698;54;20030;-79
2023/01/06 14:23:33;;;;;;;2.35;0.90;;;;;;;12.10;61.81;100412.94;1090243;39;20618;-80
2023/01/06 14:24:41;;;;;;;2.97;1.20;;;;;;;12.20;61.36;100416.44;1087875;54;20034;-80
2023/01/06 14:25:48;;;;;;;1.75;0.63;;;;;;;12.32;61.16;100427.84;1087911;54;20038;-80
2023/01/06 14:26:59;;;;;;;2.45;0.80;;;;;;;12.20;61.47;100411.06;1087914;54;20030;-79
2023/01/06 14:28:07;;;;;;;3.25;1.05;;;;;;;12.19;61.40;100419.25;1088052;54;20038;-78
2023/01/06 14:29:56;;;;;;;2.78;0.77;;;;;;;12.00;61.96;100423.69;1087826;54;20018;-79
2023/01/06 14:31:30;;;;;;;1.77;0.70;;;;;;;11.81;62.12;100420.03;1089811;46;20039;-81
2023/01/06 14:33:03;;;;;;;2.60;0.75;;;;;;;11.77;62.62;100413.25;1087413;54;20098;-80
2023/01/06 14:34:15;;;;;;;2.17;0.65;;;;;;;11.77;62.88;100423.13;1087800;54;20035;-79
2023/01/06 14:35:21;;;;;;;2.05;0.65;;;;;;;11.67;63.35;100423.13;1087777;54;20061;-79
2023/01/06 14:36:33;;;;;;;2.63;1.08;;;;;;;11.68;63.06;100425.69;1087719;54;20334;-78
2023/01/06 14:37:42;;;;;;;2.70;1.10;;;;;;;11.64;63.21;100423.44;1088370;46;20045;-78
2023/01/06 14:38:50;;;;;;;2.88;1.00;;;;;;;11.80;62.66;100422.88;1087606;54;20034;-80
2023/01/06 14:39:54;;;;;;;3.53;1.10;;;;;;;11.84;61.99;100424.25;1087650;54;20031;-79
2023/01/06 14:41:02;;;;;;;2.40;0.88;;;;;;;11.98;61.66;100418.47;1090813;39;20668;-80
2023/01/06 14:42:12;;;;;;;3.00;1.00;;;;;;;12.01;61.39;100431.56;1087793;54;20086;-78
2023/01/06 14:43:29;;;;;;;3.22;1.02;;;;;;;12.04;61.16;100425.09;1088076;46;20019;-79
2023/01/06 14:44:43;;;;;;;3.22;1.27;;;;;;;11.92;60.56;100431.56;1087803;54;20065;-79
2023/01/06 14:45:45;;;;;;;2.70;1.00;;;;;;;11.81;61.20;100424.53;1087824;54;20093;-78
2023/01/06 14:46:53;;;;;;;3.50;1.23;;;;;;;11.81;61.19;100425.38;1087807;54;20041;-79
2023/01/06 14:48:04;;;;;;;3.70;1.08;;;;;;;11.94;60.76;100429.59;1087700;54;20041;-79
2023/01/06 14:49:20;;;;;;;2.70;0.88;;;;;;;11.73;60.67;100427.94;1088120;46;20042;-79
2023/01/06 14:50:24;;;;;;;1.27;0.60;;;;;;;11.58;61.03;100430.22;1087827;54;20042;-81
2023/01/06 14:51:33;;;;;;;3.15;0.95;;;;;;;11.61;60.67;100429.94;1088143;46;20038;-81
2023/01/06 14:52:42;;;;;;;3.00;0.80;;;;;;;11.82;60.33;100423.53;1087851;54;20037;-81
2023/01/06 14:53:52;;;;;;;3.03;1.27;;;;;;;11.87;60.14;100423.97;1087881;54;20034;-80
2023/01/06 14:54:56;;;;;;;2.30;0.95;;;;;;;11.63;60.67;100430.63;1088859;39;20696;-81
2023/01/06 14:56:16;;;;;;;2.03;0.75;;;;;;;11.82;60.21;100431.56;1088162;54;20022;-81
2023/01/06 14:57:29;;;;;;;4.23;0.70;;;;;;;11.55;60.53;100436.69;1088077;47;20049;-81
2023/01/06 14:58:35;;;;;;;1.77;0.70;;;;;;;11.64;60.82;100428.81;1089484;39;20460;-81
2023/01/06 14:59:39;;;;;;;2.38;0.70;;;;;;;11.57;60.83;100431.19;1087998;54;20034;-82
2023/01/06 15:00:48;;;;;;;1.45;0.50;;;;;;;11.53;61.06;100433.31;1088047;54;20046;-81
2023/01/06 15:02:01;;;;;;;2.75;0.77;;;;;;;11.45;61.22;100437.66;1089576;46;20038;-82
2023/01/06 15:03:07;;;;;;;2.60;0.90;;;;;;;11.57;61.06;100425.84;1091789;46;20031;-81
2023/01/06 15:04:22;;;;;;;3.08;0.80;;;;;;;11.56;61.07;100432.19;1088073;54;20061;-81
2023/01/06 15:05:30;;;;;;;2.80;1.10;;;;;;;11.56;61.08;100432.19;1088069;54;20038;-82
2023/01/06 15:06:37;;;;;;;2.75;0.80;;;;;;;11.47;61.12;100427.69;1088208;54;20053;-82
2023/01/06 15:08:01;;;;;;;2.22;0.88;;;;;;;11.43;61.66;100429.78;1088073;47;20034;-82
2023/01/06 15:09:12;;;;;;;2.35;0.80;;;;;;;11.39;61.61;100431.03;1088085;54;20026;-83
2023/01/06 15:10:31;;;;;;;1.92;0.65;;;;;;;11.42;61.79;100435.28;1087939;54;20090;-80
2023/01/06 15:11:40;;;;;;;1.53;0.80;;;;;;;11.43;61.72;100434.31;1088099;54;20050;-83
2023/01/06 15:12:45;;;;;;;2.00;0.60;;;;;;;11.47;61.96;100441.06;1087687;54;20034;-79
2023/01/06 15:13:49;;;;;;;2.10;0.70;;;;;;;11.48;61.85;100430.19;1087517;54;20045;-79
2023/01/06 15:14:54;;;;;;;2.67;0.80;;;;;;;11.51;61.89;100432.59;1089844;39;20328;-79
2023/01/06 15:16:02;;;;;;;2.28;0.80;;;;;;;11.41;62.30;100436.28;1087653;54;20038;-79
2023/01/06 15:17:15;;;;;;;2.45;0.90;;;;;;;11.59;61.55;100437.25;1087605;54;20038;-81
2023/01/06 15:18:30;;;;;;;2.65;0.75;;;;;;;11.63;61.47;100438.66;1087650;54;20041;-78
2023/01/06 15:19:36;;;;;;;4.10;0.75;;;;;;;11.50;61.77;100433.59;1087605;54;20064;-80
2023/01/06 15:20:44;;;;;;;2.72;0.80;;;;;;;11.49;62.08;100439.09;1088691;46;20034;-79
2023/01/06 15:21:53;;;;;;;4.28;1.00;;;;;;;11.50;62.18;100427.41;1087685;54;20057;-79
2023/01/06 15:22:58;;;;;;;2.10;0.80;;;;;;;11.46;62.33;100431.34;1087547;54;20045;-77
2023/01/06 15:24:02;;;;;;;2.55;0.73;;;;;;;11.42;62.42;100436.13;1087612;54;20090;-79
2023/01/06 15:25:08;;;;;;;3.03;0.90;;;;;;;11.58;62.10;100424.00;1087678;54;20019;-78
2023/01/06 15:26:16;;;;;;;2.25;0.80;;;;;;;11.57;61.97;100422.34;1087640;54;20038;-79
2023/01/06 15:27:22;;;;;;;4.85;1.73;;;;;;;11.59;61.78;100420.34;1087650;54;20090;-79
2023/01/06 15:28:24;;;;;;;2.72;1.13;;;;;;;11.50;62.17;100428.22;1087743;54;20038;-79
2023/01/06 15:29:28;;;;;;;2.63;0.90;;;;;;;11.59;61.95;100420.34;1087674;54;20087;-79
2023/01/06 15:30:35;;;;;;;2.40;0.98;;;;;;;11.65;61.77;100415.25;1087591;54;20725;-79
2023/01/06 15:31:39;;;;;;;2.35;0.90;;;;;;;11.59;62.11;100410.47;1087676;54;20062;-79
2023/01/06 15:32:43;;;;;;;2.40;0.90;;;;;;;11.64;61.86;100426.94;1087580;54;20034;-79
2023/01/06 15:33:46;;;;;;;2.95;1.10;;;;;;;11.59;61.89;100425.69;1088048;39;20736;-78
2023/01/06 15:34:52;;;;;;;2.97;1.23;;;;;;;11.73;61.77;100421.72;1087675;54;20412;-80
2023/01/06 15:35:57;;;;;;;2.80;1.08;;;;;;;11.77;61.45;100428.50;1087990;54;20034;-82
2023/01/06 15:37:08;;;;;;;2.60;1.08;;;;;;;11.69;61.79;100437.25;1088069;54;20097;-82
2023/01/06 15:38:26;;;;;;;3.55;1.00;;;;;;;11.62;61.83;100431.59;1088031;54;20034;-79
2023/01/06 15:39:32;;;;;;;2.72;0.90;;;;;;;11.82;61.28;100435.13;1087695;54;20034;-79
2023/01/06 15:40:33;;;;;;;1.80;0.70;;;;;;;11.87;61.41;100434.69;1087987;46;20025;-79
2023/01/06 15:41:45;;;;;;;3.22;1.00;;;;;;;11.59;61.76;100431.03;1088110;39;20601;-80
2023/01/06 15:42:49;;;;;;;3.00;0.80;;;;;;;11.57;62.00;100433.88;1087891;54;20034;-79
2023/01/06 15:43:51;;;;;;;2.85;1.00;;;;;;;11.50;62.10;100433.59;1087696;54;20038;-82
2023/01/06 15:44:57;;;;;;;2.60;0.80;;;;;;;11.53;62.21;100444.03;1087836;54;20026;-79
2023/01/06 15:46:05;;;;;;;3.72;1.20;;;;;;;11.73;61.55;100433.31;1087843;54;20095;-79
2023/01/06 15:47:22;;;;;;;3.15;1.20;;;;;;;11.66;61.43;100446.41;1087895;54;20042;-79
2023/01/06 15:48:28;;;;;;;2.75;1.02;;;;;;;11.57;62.00;100439.22;1087800;54;20030;-80
2023/01/06 15:49:35;;;;;;;2.75;0.90;;;;;;;11.60;62.06;100446.13;1087846;54;20111;-79
2023/01/06 15:50:40;;;;;;;2.67;1.00;;;;;;;11.52;62.32;100434.28;1087852;54;20038;-79
2023/01/06 15:51:42;;;;;;;2.90;1.00;;;;;;;11.49;62.27;100441.78;1089756;31;20811;-79
2023/01/06 15:52:51;;;;;;;1.85;0.70;;;;;;;11.58;61.76;100440.91;1087775;54;20800;-79
2023/01/06 15:53:56;;;;;;;3.85;1.20;;;;;;;11.48;62.13;100437.41;1087812;54;20314;-80
2023/01/06 15:55:04;;;;;;;2.45;0.98;;;;;;;11.70;61.87;100439.78;1088134;39;20611;-80
2023/01/06 15:56:08;;;;;;;2.72;0.90;;;;;;;11.82;61.51;100435.13;1087855;54;20025;-80
2023/01/06 15:57:14;;;;;;;2.40;0.90;;;;;;;11.65;61.98;100447.38;1087814;54;20034;-80
2023/01/06 15:58:23;;;;;;;2.25;0.80;;;;;;;11.67;61.94;100439.22;1087743;54;20091;-80
2023/01/06 15:59:25;;;;;;;2.30;1.00;;;;;;;11.63;62.00;100444.00;1090207;39;20226;-79
2023/01/06 16:00:33;;;;;;;2.90;0.98;;;;;;;11.62;62.30;100439.63;1087750;54;20326;-80
2023/01/06 16:01:37;;;;;;;2.60;1.00;;;;;;;11.55;62.50;100438.53;1087893;54;20034;-80
2023/01/06 16:02:41;;;;;;;3.60;1.30;;;;;;;11.54;62.35;100443.03;1087761;54;20773;-80
2023/01/06 16:03:48;;;;;;;2.70;0.77;;;;;;;11.57;62.31;100438.41;1087866;54;20094;-79
2023/01/06 16:04:50;;;;;;;2.85;0.88;;;;;;;11.70;61.99;100438.94;1087829;54;20038;-79
2023/01/06 16:06:06;;;;;;;2.30;0.82;;;;;;;11.78;61.71;100436.38;1087790;54;20098;-79